Lincoln, NE

11:37 PM CST on December 28, 2014 (GMT -0600)
Highlands | Change Station
CLOSE
Current Station
Personal Weather Station
Location: Lincoln, NE
Elevation: 1273 ft
Nearby Weather Stations

Elev 1273 ft 40.87 °N, 96.74 °W | Updated 4 minutes ago

Mostly Cloudy
Mostly Cloudy
23.2 °F
Feels Like 18 °F
N
3.7
Wind Variable Wind from SW

Today
High -- | Low -- °F
--% Chance of Precip.
Yesterday
High -- | Low -- °F
Precip. -- in
7:50 AM 5:06 PM
First Quarter, 55% visible
Pressure 30.25 in
Visibility 8.0 miles
Clouds Mostly Cloudy 12000 ft
Windchill 18 °F
Dew Point 20 °F
Humidity 87%
Rainfall 0.00 in
Snow Depth Not available.
UV 0 out of 12
Pollen .10 out of 12
Air Quality Not available.
Flu Activity Not available.
METAR KLNK 290454Z AUTO 36007KT 8SM BKN120 M04/M06 A3020 RMK AO2 SLP242 T10391061

More Conditions Fewer Conditions

Pressure 30.25 in
Visibility 8.0 miles
Clouds Mostly Cloudy 12000 ft
Windchill 18 °F
Dew Point 20 °F
Humidity 87%
Rainfall 0.00 in
Snow Depth Not available.
UV 0 out of 12
Pollen .10 out of 12
Air Quality Not available.
Flu Activity Not available.
METAR KLNK 290454Z AUTO 36007KT 8SM BKN120 M04/M06 A3020 RMK AO2 SLP242 T10391061

More Conditions Fewer Conditions

10-Day Weather Forecast

Almanac

Astronomy

Dec. 28, 2014 Rise Set
Actual Time
Civil Twilight
Nautical Twilight
Astronomical Twilight
Moon
Length of Visible Light
Length of Day
Tomorrow will be .
, % of the Moon is Illuminated

Today's Extremes

State Highs State Lows

Community

WunderPhotos

Upload Photos

1,781,542 photos uploaded!

WunderBlogs® & News

Nearby

Air Quality

  Air Quality AQ Index Pollutant
Not available.

Snow Depth

Station Depth Elevation

Earthquake Activity

City Distance Mag. Time & Date
Minimum magnitude displayed is 2.5.

Coastal Water Temperatures

Place Temperature

Nearby Weather Stations